sensor_id;sensor_type;location;lat;lon;timestamp;temperature;humidity
26212;DHT22;13951;49.516;6.094;2023-03-20T00:01:32;9.40;99.90
26212;DHT22;13951;49.516;6.094;2023-03-20T00:04:05;9.40;99.90
26212;DHT22;13951;49.516;6.094;2023-03-20T00:06:37;8.90;99.90
26212;DHT22;13951;49.516;6.094;2023-03-20T00:09:10;9.50;99.90
26212;DHT22;13951;49.516;6.094;2023-03-20T00:11:49;9.40;99.90
26212;DHT22;13951;49.516;6.094;2023-03-20T00:14:23;9.40;99.90
26212;DHT22;13951;49.516;6.094;2023-03-20T00:16:56;9.40;99.90
26212;DHT22;13951;49.516;6.094;2023-03-20T00:19:29;9.40;99.90
26212;DHT22;13951;49.516;6.094;2023-03-20T00:22:02;9.40;99.90
26212;DHT22;13951;49.516;6.094;2023-03-20T00:24:35;9.40;99.90
26212;DHT22;13951;49.516;6.094;2023-03-20T00:27:12;9.40;99.90
26212;DHT22;13951;49.516;6.094;2023-03-20T00:29:45;9.40;99.90
26212;DHT22;13951;49.516;6.094;2023-03-20T00:32:19;9.40;99.90
26212;DHT22;13951;49.516;6.094;2023-03-20T00:34:53;9.30;99.90
26212;DHT22;13951;49.516;6.094;2023-03-20T00:37:27;9.30;99.90
26212;DHT22;13951;49.516;6.094;2023-03-20T00:40:02;9.40;99.90
26212;DHT22;13951;49.516;6.094;2023-03-20T00:42:35;9.40;99.90
26212;DHT22;13951;49.516;6.094;2023-03-20T00:45:15;9.30;99.90
26212;DHT22;13951;49.516;6.094;2023-03-20T00:47:50;9.30;99.90
26212;DHT22;13951;49.516;6.094;2023-03-20T00:50:26;9.20;99.90
26212;DHT22;13951;49.516;6.094;2023-03-20T00:53:02;9.30;99.90
26212;DHT22;13951;49.516;6.094;2023-03-20T00:55:35;9.30;99.90
26212;DHT22;13951;49.516;6.094;2023-03-20T00:58:11;9.30;99.90
26212;DHT22;13951;49.516;6.094;2023-03-20T01:00:44;9.30;99.90
26212;DHT22;13951;49.516;6.094;2023-03-20T01:03:20;9.30;99.90
26212;DHT22;13951;49.516;6.094;2023-03-20T01:05:54;9.30;99.90
26212;DHT22;13951;49.516;6.094;2023-03-20T01:08:28;9.30;99.90
26212;DHT22;13951;49.516;6.094;2023-03-20T01:11:02;9.30;99.90
26212;DHT22;13951;49.516;6.094;2023-03-20T01:13:37;9.30;99.90
26212;DHT22;13951;49.516;6.094;2023-03-20T01:16:20;9.30;99.90
26212;DHT22;13951;49.516;6.094;2023-03-20T01:18:54;9.30;99.90
26212;DHT22;13951;49.516;6.094;2023-03-20T01:21:27;9.30;99.90
26212;DHT22;13951;49.516;6.094;2023-03-20T01:23:59;9.30;99.90
26212;DHT22;13951;49.516;6.094;2023-03-20T01:26:40;9.30;99.90
26212;DHT22;13951;49.516;6.094;2023-03-20T01:34:30;9.10;99.90
26212;DHT22;13951;49.516;6.094;2023-03-20T01:37:05;9.30;99.90
26212;DHT22;13951;49.516;6.094;2023-03-20T01:39:41;9.20;99.90
26212;DHT22;13951;49.516;6.094;2023-03-20T01:42:15;9.20;99.90
26212;DHT22;13951;49.516;6.094;2023-03-20T02:08:31;8.90;99.90
26212;DHT22;13951;49.516;6.094;2023-03-20T02:11:10;9.20;99.90
26212;DHT22;13951;49.516;6.094;2023-03-20T02:13:44;9.20;99.90
26212;DHT22;13951;49.516;6.094;2023-03-20T02:16:18;9.20;99.90
26212;DHT22;13951;49.516;6.094;2023-03-20T02:19:02;9.30;99.90
26212;DHT22;13951;49.516;6.094;2023-03-20T02:28:05;9.30;99.90
26212;DHT22;13951;49.516;6.094;2023-03-20T02:34:28;9.30;99.90
26212;DHT22;13951;49.516;6.094;2023-03-20T02:40:23;9.20;99.90
26212;DHT22;13951;49.516;6.094;2023-03-20T02:51:39;9.00;99.90
26212;DHT22;13951;49.516;6.094;2023-03-20T02:59:41;9.00;99.90
26212;DHT22;13951;49.516;6.094;2023-03-20T03:02:39;9.10;99.90
26212;DHT22;13951;49.516;6.094;2023-03-20T03:05:21;9.10;99.90
26212;DHT22;13951;49.516;6.094;2023-03-20T03:07:57;9.00;99.90
26212;DHT22;13951;49.516;6.094;2023-03-20T03:10:41;8.90;99.90
26212;DHT22;13951;49.516;6.094;2023-03-20T03:13:19;9.00;99.90
26212;DHT22;13951;49.516;6.094;2023-03-20T03:15:55;9.00;99.90
26212;DHT22;13951;49.516;6.094;2023-03-20T03:18:35;8.90;99.90
26212;DHT22;13951;49.516;6.094;2023-03-20T03:21:10;8.90;99.90
26212;DHT22;13951;49.516;6.094;2023-03-20T03:23:47;8.90;99.90
26212;DHT22;13951;49.516;6.094;2023-03-20T03:26:24;8.80;99.90
26212;DHT22;13951;49.516;6.094;2023-03-20T03:29:03;8.80;99.90
26212;DHT22;13951;49.516;6.094;2023-03-20T03:31:40;8.80;99.90
26212;DHT22;13951;49.516;6.094;2023-03-20T03:34:16;8.80;99.90
26212;DHT22;13951;49.516;6.094;2023-03-20T03:36:59;8.70;99.90
26212;DHT22;13951;49.516;6.094;2023-03-20T03:39:40;8.70;99.90
26212;DHT22;13951;49.516;6.094;2023-03-20T03:42:31;8.70;99.90
26212;DHT22;13951;49.516;6.094;2023-03-20T03:45:23;8.60;99.90
26212;DHT22;13951;49.516;6.094;2023-03-20T03:48:05;8.60;99.90
26212;DHT22;13951;49.516;6.094;2023-03-20T03:50:49;8.60;99.90
26212;DHT22;13951;49.516;6.094;2023-03-20T03:53:30;8.60;99.90
26212;DHT22;13951;49.516;6.094;2023-03-20T03:56:07;8.60;99.90
26212;DHT22;13951;49.516;6.094;2023-03-20T03:58:54;8.70;99.90
26212;DHT22;13951;49.516;6.094;2023-03-20T04:01:30;8.70;99.90
26212;DHT22;13951;49.516;6.094;2023-03-20T04:04:09;8.70;99.90
26212;DHT22;13951;49.516;6.094;2023-03-20T04:06:42;8.80;99.90
26212;DHT22;13951;49.516;6.094;2023-03-20T04:09:15;8.80;99.90
26212;DHT22;13951;49.516;6.094;2023-03-20T04:11:50;8.80;99.90
26212;DHT22;13951;49.516;6.094;2023-03-20T04:14:24;8.70;99.90
26212;DHT22;13951;49.516;6.094;2023-03-20T04:16:57;8.70;99.90
26212;DHT22;13951;49.516;6.094;2023-03-20T04:19:30;8.50;99.90
26212;DHT22;13951;49.516;6.094;2023-03-20T04:22:03;8.50;99.90
26212;DHT22;13951;49.516;6.094;2023-03-20T04:24:36;8.50;99.90
26212;DHT22;13951;49.516;6.094;2023-03-20T04:27:09;8.40;99.90
26212;DHT22;13951;49.516;6.094;2023-03-20T04:29:44;8.50;99.90
26212;DHT22;13951;49.516;6.094;2023-03-20T04:32:48;8.40;99.90
26212;DHT22;13951;49.516;6.094;2023-03-20T04:35:39;8.40;99.90
26212;DHT22;13951;49.516;6.094;2023-03-20T04:38:17;8.30;99.90
26212;DHT22;13951;49.516;6.094;2023-03-20T04:40:51;8.30;99.90
26212;DHT22;13951;49.516;6.094;2023-03-20T04:43:24;8.30;99.90
26212;DHT22;13951;49.516;6.094;2023-03-20T04:45:57;8.30;99.90
26212;DHT22;13951;49.516;6.094;2023-03-20T04:48:30;8.20;99.90
26212;DHT22;13951;49.516;6.094;2023-03-20T04:51:03;8.20;99.90
26212;DHT22;13951;49.516;6.094;2023-03-20T04:53:50;8.20;99.90
26212;DHT22;13951;49.516;6.094;2023-03-20T04:56:23;8.10;99.90
26212;DHT22;13951;49.516;6.094;2023-03-20T04:58:57;8.10;99.90
26212;DHT22;13951;49.516;6.094;2023-03-20T05:01:30;8.10;99.90
26212;DHT22;13951;49.516;6.094;2023-03-20T05:04:03;8.10;99.90
26212;DHT22;13951;49.516;6.094;2023-03-20T05:06:37;8.00;99.90
26212;DHT22;13951;49.516;6.094;2023-03-20T05:09:10;7.90;99.90
26212;DHT22;13951;49.516;6.094;2023-03-20T05:11:43;7.90;99.90
26212;DHT22;13951;49.516;6.094;2023-03-20T05:14:25;7.90;99.90
26212;DHT22;13951;49.516;6.094;2023-03-20T05:17:18;7.90;99.90
26212;DHT22;13951;49.516;6.094;2023-03-20T05:20:19;7.80;99.90
26212;DHT22;13951;49.516;6.094;2023-03-20T05:23:10;7.80;99.90
26212;DHT22;13951;49.516;6.094;2023-03-20T05:25:54;7.80;99.90
26212;DHT22;13951;49.516;6.094;2023-03-20T05:29:05;7.70;99.90
26212;DHT22;13951;49.516;6.094;2023-03-20T05:31:50;7.60;99.90
26212;DHT22;13951;49.516;6.094;2023-03-20T05:34:36;7.60;99.90
26212;DHT22;13951;49.516;6.094;2023-03-20T05:37:16;7.60;99.90
26212;DHT22;13951;49.516;6.094;2023-03-20T05:40:05;7.60;99.90
26212;DHT22;13951;49.516;6.094;2023-03-20T05:43:04;7.60;99.90
26212;DHT22;13951;49.516;6.094;2023-03-20T05:45:36;7.60;99.90
26212;DHT22;13951;49.516;6.094;2023-03-20T05:48:40;7.60;99.90
26212;DHT22;13951;49.516;6.094;2023-03-20T05:51:45;7.60;99.90
26212;DHT22;13951;49.516;6.094;2023-03-20T05:54:37;7.60;99.90
26212;DHT22;13951;49.516;6.094;2023-03-20T05:57:32;7.60;99.90
26212;DHT22;13951;49.516;6.094;2023-03-20T06:00:28;7.50;99.90
26212;DHT22;13951;49.516;6.094;2023-03-20T06:03:21;7.50;99.90
26212;DHT22;13951;49.516;6.094;2023-03-20T06:06:03;7.40;99.90
26212;DHT22;13951;49.516;6.094;2023-03-20T06:08:36;7.30;99.90
26212;DHT22;13951;49.516;6.094;2023-03-20T06:11:10;7.20;99.90
26212;DHT22;13951;49.516;6.094;2023-03-20T06:13:44;7.10;99.90
26212;DHT22;13951;49.516;6.094;2023-03-20T06:16:17;7.10;99.90
26212;DHT22;13951;49.516;6.094;2023-03-20T06:18:50;7.20;99.90
26212;DHT22;13951;49.516;6.094;2023-03-20T06:21:22;7.10;99.90
26212;DHT22;13951;49.516;6.094;2023-03-20T06:23:56;7.10;99.90
26212;DHT22;13951;49.516;6.094;2023-03-20T06:26:29;7.20;99.90
26212;DHT22;13951;49.516;6.094;2023-03-20T06:29:08;7.20;99.90
26212;DHT22;13951;49.516;6.094;2023-03-20T06:31:41;7.20;99.90
26212;DHT22;13951;49.516;6.094;2023-03-20T06:34:18;7.20;99.90
26212;DHT22;13951;49.516;6.094;2023-03-20T06:36:52;7.20;99.90
26212;DHT22;13951;49.516;6.094;2023-03-20T06:39:28;7.20;99.90
26212;DHT22;13951;49.516;6.094;2023-03-20T06:42:01;7.20;99.90
26212;DHT22;13951;49.516;6.094;2023-03-20T06:44:34;7.20;99.90
26212;DHT22;13951;49.516;6.094;2023-03-20T06:47:27;7.10;99.90
26212;DHT22;13951;49.516;6.094;2023-03-20T06:50:01;7.10;99.90
26212;DHT22;13951;49.516;6.094;2023-03-20T06:52:36;7.20;99.90
26212;DHT22;13951;49.516;6.094;2023-03-20T06:55:29;7.20;99.90
26212;DHT22;13951;49.516;6.094;2023-03-20T06:58:02;7.20;99.90
26212;DHT22;13951;49.516;6.094;2023-03-20T07:00:36;7.30;99.90
26212;DHT22;13951;49.516;6.094;2023-03-20T07:03:11;7.40;99.90
26212;DHT22;13951;49.516;6.094;2023-03-20T07:05:44;7.40;99.90
26212;DHT22;13951;49.516;6.094;2023-03-20T07:08:17;7.50;99.90
26212;DHT22;13951;49.516;6.094;2023-03-20T07:10:50;7.60;99.90
26212;DHT22;13951;49.516;6.094;2023-03-20T07:13:23;7.60;99.90
26212;DHT22;13951;49.516;6.094;2023-03-20T07:15:56;7.70;99.90
26212;DHT22;13951;49.516;6.094;2023-03-20T07:18:41;7.80;99.90
26212;DHT22;13951;49.516;6.094;2023-03-20T07:21:19;7.90;99.90
26212;DHT22;13951;49.516;6.094;2023-03-20T07:23:53;7.90;99.90
26212;DHT22;13951;49.516;6.094;2023-03-20T07:26:26;7.90;99.90
26212;DHT22;13951;49.516;6.094;2023-03-20T07:28:59;7.80;99.90
26212;DHT22;13951;49.516;6.094;2023-03-20T07:31:32;7.80;99.90
26212;DHT22;13951;49.516;6.094;2023-03-20T07:34:13;7.80;99.90
26212;DHT22;13951;49.516;6.094;2023-03-20T07:36:46;7.80;99.90
26212;DHT22;13951;49.516;6.094;2023-03-20T07:39:23;7.70;99.90
26212;DHT22;13951;49.516;6.094;2023-03-20T07:42:21;7.70;99.90
26212;DHT22;13951;49.516;6.094;2023-03-20T07:45:03;7.70;99.90
26212;DHT22;13951;49.516;6.094;2023-03-20T07:47:36;7.80;99.90
26212;DHT22;13951;49.516;6.094;2023-03-20T07:50:10;7.90;99.90
26212;DHT22;13951;49.516;6.094;2023-03-20T07:52:49;7.90;99.90
26212;DHT22;13951;49.516;6.094;2023-03-20T07:55:25;8.00;99.90
26212;DHT22;13951;49.516;6.094;2023-03-20T07:58:02;7.90;99.90
26212;DHT22;13951;49.516;6.094;2023-03-20T08:00:34;7.90;99.90
26212;DHT22;13951;49.516;6.094;2023-03-20T08:03:08;8.00;99.90
26212;DHT22;13951;49.516;6.094;2023-03-20T08:05:42;8.00;99.90
26212;DHT22;13951;49.516;6.094;2023-03-20T08:08:18;8.00;99.90
26212;DHT22;13951;49.516;6.094;2023-03-20T08:10:51;8.10;99.90
26212;DHT22;13951;49.516;6.094;2023-03-20T08:13:24;8.10;99.90
26212;DHT22;13951;49.516;6.094;2023-03-20T08:15:57;8.10;99.90
26212;DHT22;13951;49.516;6.094;2023-03-20T08:18:30;8.20;99.90
26212;DHT22;13951;49.516;6.094;2023-03-20T08:21:03;8.20;99.90
26212;DHT22;13951;49.516;6.094;2023-03-20T08:23:36;8.30;99.90
26212;DHT22;13951;49.516;6.094;2023-03-20T08:26:08;8.50;99.90
26212;DHT22;13951;49.516;6.094;2023-03-20T08:28:41;8.60;99.90
26212;DHT22;13951;49.516;6.094;2023-03-20T08:31:20;8.70;99.90
26212;DHT22;13951;49.516;6.094;2023-03-20T08:33:54;8.80;99.90
26212;DHT22;13951;49.516;6.094;2023-03-20T08:36:28;8.80;99.90
26212;DHT22;13951;49.516;6.094;2023-03-20T08:39:00;8.70;99.90
26212;DHT22;13951;49.516;6.094;2023-03-20T08:41:35;8.70;99.90
26212;DHT22;13951;49.516;6.094;2023-03-20T08:44:11;8.60;99.90
26212;DHT22;13951;49.516;6.094;2023-03-20T08:46:44;8.60;99.90
26212;DHT22;13951;49.516;6.094;2023-03-20T08:49:18;8.60;99.90
26212;DHT22;13951;49.516;6.094;2023-03-20T08:51:51;8.60;99.90
26212;DHT22;13951;49.516;6.094;2023-03-20T08:54:24;8.60;99.90
26212;DHT22;13951;49.516;6.094;2023-03-20T08:56:57;8.80;99.90
26212;DHT22;13951;49.516;6.094;2023-03-20T08:59:30;8.90;99.90
26212;DHT22;13951;49.516;6.094;2023-03-20T09:02:03;9.00;99.90
26212;DHT22;13951;49.516;6.094;2023-03-20T09:04:36;9.10;99.90
26212;DHT22;13951;49.516;6.094;2023-03-20T09:07:09;9.30;99.90
26212;DHT22;13951;49.516;6.094;2023-03-20T09:09:42;9.40;99.90
26212;DHT22;13951;49.516;6.094;2023-03-20T09:12:14;9.40;99.90
26212;DHT22;13951;49.516;6.094;2023-03-20T09:14:47;9.40;99.90
26212;DHT22;13951;49.516;6.094;2023-03-20T09:17:20;9.40;99.90
26212;DHT22;13951;49.516;6.094;2023-03-20T09:19:53;9.40;99.90
26212;DHT22;13951;49.516;6.094;2023-03-20T09:22:26;9.40;99.90
26212;DHT22;13951;49.516;6.094;2023-03-20T09:24:58;9.50;99.90
26212;DHT22;13951;49.516;6.094;2023-03-20T09:27:32;9.60;99.90
26212;DHT22;13951;49.516;6.094;2023-03-20T09:30:06;9.50;99.90
26212;DHT22;13951;49.516;6.094;2023-03-20T09:32:39;9.60;99.90
26212;DHT22;13951;49.516;6.094;2023-03-20T09:35:12;9.60;99.90
26212;DHT22;13951;49.516;6.094;2023-03-20T09:37:45;9.70;99.90
26212;DHT22;13951;49.516;6.094;2023-03-20T09:43:33;9.90;99.90
26212;DHT22;13951;49.516;6.094;2023-03-20T09:49:47;10.00;99.90
26212;DHT22;13951;49.516;6.094;2023-03-20T09:55:13;10.10;99.90
26212;DHT22;13951;49.516;6.094;2023-03-20T09:57:53;10.10;99.90
26212;DHT22;13951;49.516;6.094;2023-03-20T10:00:28;10.10;99.90
26212;DHT22;13951;49.516;6.094;2023-03-20T10:03:12;10.10;99.90
26212;DHT22;13951;49.516;6.094;2023-03-20T10:06:12;10.20;99.90
26212;DHT22;13951;49.516;6.094;2023-03-20T10:08:45;10.10;99.90
26212;DHT22;13951;49.516;6.094;2023-03-20T10:11:24;10.10;99.90
26212;DHT22;13951;49.516;6.094;2023-03-20T10:20:09;10.10;99.90
26212;DHT22;13951;49.516;6.094;2023-03-20T10:22:54;10.20;99.90
26212;DHT22;13951;49.516;6.094;2023-03-20T10:25:32;10.20;99.90
26212;DHT22;13951;49.516;6.094;2023-03-20T10:28:23;10.20;99.90
26212;DHT22;13951;49.516;6.094;2023-03-20T10:31:12;10.20;99.90
26212;DHT22;13951;49.516;6.094;2023-03-20T10:34:16;10.20;99.90
26212;DHT22;13951;49.516;6.094;2023-03-20T10:39:49;10.00;99.90
26212;DHT22;13951;49.516;6.094;2023-03-20T10:42:28;10.00;99.90
26212;DHT22;13951;49.516;6.094;2023-03-20T10:45:38;10.00;99.90
26212;DHT22;13951;49.516;6.094;2023-03-20T10:48:33;9.90;99.90
26212;DHT22;13951;49.516;6.094;2023-03-20T10:51:13;9.80;99.90
26212;DHT22;13951;49.516;6.094;2023-03-20T10:53:51;9.80;99.90
26212;DHT22;13951;49.516;6.094;2023-03-20T10:56:31;9.80;99.90
26212;DHT22;13951;49.516;6.094;2023-03-20T10:59:13;9.90;99.90
26212;DHT22;13951;49.516;6.094;2023-03-20T11:01:48;9.90;99.90
26212;DHT22;13951;49.516;6.094;2023-03-20T11:04:21;9.90;99.90
26212;DHT22;13951;49.516;6.094;2023-03-20T11:10:14;10.00;99.90
26212;DHT22;13951;49.516;6.094;2023-03-20T11:12:49;10.10;99.90
26212;DHT22;13951;49.516;6.094;2023-03-20T11:15:31;10.30;99.90
26212;DHT22;13951;49.516;6.094;2023-03-20T11:18:06;10.50;99.90
26212;DHT22;13951;49.516;6.094;2023-03-20T11:23:28;10.70;99.90
26212;DHT22;13951;49.516;6.094;2023-03-20T11:26:05;10.80;99.90
26212;DHT22;13951;49.516;6.094;2023-03-20T11:28:40;10.80;99.90
26212;DHT22;13951;49.516;6.094;2023-03-20T11:36:33;10.50;99.90
26212;DHT22;13951;49.516;6.094;2023-03-20T11:39:13;10.40;99.90
26212;DHT22;13951;49.516;6.094;2023-03-20T11:41:50;10.50;99.90
26212;DHT22;13951;49.516;6.094;2023-03-20T11:44:32;10.40;99.90
26212;DHT22;13951;49.516;6.094;2023-03-20T11:47:13;10.40;99.90
26212;DHT22;13951;49.516;6.094;2023-03-20T11:49:54;10.40;99.90
26212;DHT22;13951;49.516;6.094;2023-03-20T11:52:38;10.30;99.90
26212;DHT22;13951;49.516;6.094;2023-03-20T11:55:28;10.30;99.90
26212;DHT22;13951;49.516;6.094;2023-03-20T11:58:03;10.30;99.90
26212;DHT22;13951;49.516;6.094;2023-03-20T12:00:41;10.30;99.90
26212;DHT22;13951;49.516;6.094;2023-03-20T12:03:43;10.30;99.90
26212;DHT22;13951;49.516;6.094;2023-03-20T12:06:19;10.40;99.90
26212;DHT22;13951;49.516;6.094;2023-03-20T12:09:00;10.50;99.90
26212;DHT22;13951;49.516;6.094;2023-03-20T12:11:46;10.50;99.90
26212;DHT22;13951;49.516;6.094;2023-03-20T12:14:28;10.60;99.90
26212;DHT22;13951;49.516;6.094;2023-03-20T12:20:25;10.80;99.90
26212;DHT22;13951;49.516;6.094;2023-03-20T12:26:10;11.00;99.90
26212;DHT22;13951;49.516;6.094;2023-03-20T12:29:35;11.20;99.90
26212;DHT22;13951;49.516;6.094;2023-03-20T12:32:22;11.90;99.90
26212;DHT22;13951;49.516;6.094;2023-03-20T12:35:16;12.60;99.90
26212;DHT22;13951;49.516;6.094;2023-03-20T12:37:51;13.20;99.90
26212;DHT22;13951;49.516;6.094;2023-03-20T12:40:41;13.50;99.90
26212;DHT22;13951;49.516;6.094;2023-03-20T12:43:21;13.50;99.90
26212;DHT22;13951;49.516;6.094;2023-03-20T12:48:53;13.40;99.90
26212;DHT22;13951;49.516;6.094;2023-03-20T12:52:09;13.60;99.90
26212;DHT22;13951;49.516;6.094;2023-03-20T13:01:07;13.30;99.90
26212;DHT22;13951;49.516;6.094;2023-03-20T13:12:37;12.30;99.90
26212;DHT22;13951;49.516;6.094;2023-03-20T13:21:02;11.80;99.90
26212;DHT22;13951;49.516;6.094;2023-03-20T13:23:45;11.80;99.90
26212;DHT22;13951;49.516;6.094;2023-03-20T13:26:26;11.80;99.90
26212;DHT22;13951;49.516;6.094;2023-03-20T13:29:45;11.80;99.90
26212;DHT22;13951;49.516;6.094;2023-03-20T13:32:20;11.70;99.90
26212;DHT22;13951;49.516;6.094;2023-03-20T13:38:01;11.70;99.90
26212;DHT22;13951;49.516;6.094;2023-03-20T13:40:42;11.80;99.90
26212;DHT22;13951;49.516;6.094;2023-03-20T13:43:23;11.90;99.90
26212;DHT22;13951;49.516;6.094;2023-03-20T13:46:18;11.90;99.90
26212;DHT22;13951;49.516;6.094;2023-03-20T13:48:55;11.90;99.90
26212;DHT22;13951;49.516;6.094;2023-03-20T13:51:53;11.90;99.90
26212;DHT22;13951;49.516;6.094;2023-03-20T13:57:52;12.00;99.90
26212;DHT22;13951;49.516;6.094;2023-03-20T14:01:00;12.10;99.90
26212;DHT22;13951;49.516;6.094;2023-03-20T14:03:39;12.10;99.90
26212;DHT22;13951;49.516;6.094;2023-03-20T14:09:35;12.20;99.90
26212;DHT22;13951;49.516;6.094;2023-03-20T14:12:10;12.20;99.90
26212;DHT22;13951;49.516;6.094;2023-03-20T14:14:56;12.20;99.90
26212;DHT22;13951;49.516;6.094;2023-03-20T14:17:30;12.20;99.90
26212;DHT22;13951;49.516;6.094;2023-03-20T14:20:12;12.10;99.90
26212;DHT22;13951;49.516;6.094;2023-03-20T14:22:51;12.20;99.90
26212;DHT22;13951;49.516;6.094;2023-03-20T14:25:24;12.20;99.90
26212;DHT22;13951;49.516;6.094;2023-03-20T14:30:45;12.20;99.90
26212;DHT22;13951;49.516;6.094;2023-03-20T14:36:17;12.00;99.90
26212;DHT22;13951;49.516;6.094;2023-03-20T14:39:06;12.00;99.90
26212;DHT22;13951;49.516;6.094;2023-03-20T14:45:19;11.90;99.90
26212;DHT22;13951;49.516;6.094;2023-03-20T14:53:21;11.80;99.90
26212;DHT22;13951;49.516;6.094;2023-03-20T15:04:00;11.70;99.90
26212;DHT22;13951;49.516;6.094;2023-03-20T15:06:47;11.70;99.90
26212;DHT22;13951;49.516;6.094;2023-03-20T15:09:23;11.70;99.90
26212;DHT22;13951;49.516;6.094;2023-03-20T15:11:57;11.70;99.90
26212;DHT22;13951;49.516;6.094;2023-03-20T15:15:01;11.70;99.90
26212;DHT22;13951;49.516;6.094;2023-03-20T15:17:44;11.70;99.90
26212;DHT22;13951;49.516;6.094;2023-03-20T15:20:24;11.70;99.90
26212;DHT22;13951;49.516;6.094;2023-03-20T15:22:59;11.70;99.90
26212;DHT22;13951;49.516;6.094;2023-03-20T15:25:39;11.70;99.90
26212;DHT22;13951;49.516;6.094;2023-03-20T15:28:23;11.70;99.90
26212;DHT22;13951;49.516;6.094;2023-03-20T15:30:57;11.60;99.90
26212;DHT22;13951;49.516;6.094;2023-03-20T15:33:33;11.60;99.90
26212;DHT22;13951;49.516;6.094;2023-03-20T15:36:15;11.50;99.90
26212;DHT22;13951;49.516;6.094;2023-03-20T15:38:48;11.50;99.90
26212;DHT22;13951;49.516;6.094;2023-03-20T15:41:28;11.60;99.90
26212;DHT22;13951;49.516;6.094;2023-03-20T15:49:24;11.60;99.90
26212;DHT22;13951;49.516;6.094;2023-03-20T15:52:03;11.60;99.90
26212;DHT22;13951;49.516;6.094;2023-03-20T15:54:37;11.60;99.90
26212;DHT22;13951;49.516;6.094;2023-03-20T15:57:18;11.60;99.90
26212;DHT22;13951;49.516;6.094;2023-03-20T15:59:52;11.60;99.90
26212;DHT22;13951;49.516;6.094;2023-03-20T16:02:25;11.60;99.90
26212;DHT22;13951;49.516;6.094;2023-03-20T16:04:59;11.60;99.90
26212;DHT22;13951;49.516;6.094;2023-03-20T16:07:32;11.60;99.90
26212;DHT22;13951;49.516;6.094;2023-03-20T16:10:19;11.60;99.90
26212;DHT22;13951;49.516;6.094;2023-03-20T16:12:52;11.70;99.90
26212;DHT22;13951;49.516;6.094;2023-03-20T16:15:29;11.60;99.90
26212;DHT22;13951;49.516;6.094;2023-03-20T16:18:04;11.60;99.90
26212;DHT22;13951;49.516;6.094;2023-03-20T16:20:55;11.50;99.90
26212;DHT22;13951;49.516;6.094;2023-03-20T16:23:36;11.50;99.90
26212;DHT22;13951;49.516;6.094;2023-03-20T16:26:16;11.50;99.90
26212;DHT22;13951;49.516;6.094;2023-03-20T16:28:57;11.50;99.90
26212;DHT22;13951;49.516;6.094;2023-03-20T16:31:32;11.40;99.90
26212;DHT22;13951;49.516;6.094;2023-03-20T16:34:08;11.40;99.90
26212;DHT22;13951;49.516;6.094;2023-03-20T16:36:58;11.40;99.90
26212;DHT22;13951;49.516;6.094;2023-03-20T16:39:32;11.40;99.90
26212;DHT22;13951;49.516;6.094;2023-03-20T16:42:23;11.40;99.90
26212;DHT22;13951;49.516;6.094;2023-03-20T16:44:57;11.40;99.90
26212;DHT22;13951;49.516;6.094;2023-03-20T16:47:35;11.30;99.90
26212;DHT22;13951;49.516;6.094;2023-03-20T16:50:15;11.30;99.90
26212;DHT22;13951;49.516;6.094;2023-03-20T16:52:51;11.20;99.90
26212;DHT22;13951;49.516;6.094;2023-03-20T16:55:33;11.20;99.90
26212;DHT22;13951;49.516;6.094;2023-03-20T16:58:07;11.10;99.90
26212;DHT22;13951;49.516;6.094;2023-03-20T17:01:09;11.10;99.90
26212;DHT22;13951;49.516;6.094;2023-03-20T17:03:57;11.10;99.90
26212;DHT22;13951;49.516;6.094;2023-03-20T17:06:35;11.00;99.90
26212;DHT22;13951;49.516;6.094;2023-03-20T17:11:47;10.90;99.90
26212;DHT22;13951;49.516;6.094;2023-03-20T17:14:20;10.90;99.90
26212;DHT22;13951;49.516;6.094;2023-03-20T17:16:53;10.90;99.90
26212;DHT22;13951;49.516;6.094;2023-03-20T17:19:31;10.90;99.90
26212;DHT22;13951;49.516;6.094;2023-03-20T17:22:25;10.90;99.90
26212;DHT22;13951;49.516;6.094;2023-03-20T17:24:58;10.90;99.90
26212;DHT22;13951;49.516;6.094;2023-03-20T17:27:31;10.80;99.90
26212;DHT22;13951;49.516;6.094;2023-03-20T17:30:06;10.70;99.90
26212;DHT22;13951;49.516;6.094;2023-03-20T17:32:43;10.80;99.90
26212;DHT22;13951;49.516;6.094;2023-03-20T17:35:16;10.70;99.90
26212;DHT22;13951;49.516;6.094;2023-03-20T17:37:49;10.60;99.90
26212;DHT22;13951;49.516;6.094;2023-03-20T17:40:22;10.50;99.90
26212;DHT22;13951;49.516;6.094;2023-03-20T17:42:56;10.50;99.90
26212;DHT22;13951;49.516;6.094;2023-03-20T17:45:29;10.40;99.90
26212;DHT22;13951;49.516;6.094;2023-03-20T17:48:03;10.40;99.90
26212;DHT22;13951;49.516;6.094;2023-03-20T17:50:36;10.40;99.90
26212;DHT22;13951;49.516;6.094;2023-03-20T17:53:21;10.30;99.90
26212;DHT22;13951;49.516;6.094;2023-03-20T17:55:55;10.30;99.90
26212;DHT22;13951;49.516;6.094;2023-03-20T17:58:28;10.20;99.90
26212;DHT22;13951;49.516;6.094;2023-03-20T18:01:01;10.20;99.90
26212;DHT22;13951;49.516;6.094;2023-03-20T18:03:34;10.10;99.90
26212;DHT22;13951;49.516;6.094;2023-03-20T18:06:23;10.10;99.90
26212;DHT22;13951;49.516;6.094;2023-03-20T18:08:57;10.10;99.90
26212;DHT22;13951;49.516;6.094;2023-03-20T18:11:30;10.00;99.90
26212;DHT22;13951;49.516;6.094;2023-03-20T18:14:03;10.00;99.90
26212;DHT22;13951;49.516;6.094;2023-03-20T18:16:38;10.00;99.90
26212;DHT22;13951;49.516;6.094;2023-03-20T18:19:26;9.90;99.90
26212;DHT22;13951;49.516;6.094;2023-03-20T18:22:00;9.90;99.90
26212;DHT22;13951;49.516;6.094;2023-03-20T18:24:33;9.90;99.90
26212;DHT22;13951;49.516;6.094;2023-03-20T18:27:06;9.90;99.90
26212;DHT22;13951;49.516;6.094;2023-03-20T18:29:39;9.90;99.90
26212;DHT22;13951;49.516;6.094;2023-03-20T18:32:12;9.80;99.90
26212;DHT22;13951;49.516;6.094;2023-03-20T18:34:45;9.90;99.90
26212;DHT22;13951;49.516;6.094;2023-03-20T18:37:18;9.80;99.90
26212;DHT22;13951;49.516;6.094;2023-03-20T18:39:53;9.90;99.90
26212;DHT22;13951;49.516;6.094;2023-03-20T18:42:26;9.80;99.90
26212;DHT22;13951;49.516;6.094;2023-03-20T18:44:59;9.80;99.90
26212;DHT22;13951;49.516;6.094;2023-03-20T18:47:32;9.80;99.90
26212;DHT22;13951;49.516;6.094;2023-03-20T18:50:06;9.80;99.90
26212;DHT22;13951;49.516;6.094;2023-03-20T18:52:43;9.80;99.90
26212;DHT22;13951;49.516;6.094;2023-03-20T18:55:16;9.80;99.90
26212;DHT22;13951;49.516;6.094;2023-03-20T18:57:50;9.80;99.90
26212;DHT22;13951;49.516;6.094;2023-03-20T19:00:25;9.70;99.90
26212;DHT22;13951;49.516;6.094;2023-03-20T19:02:58;9.70;99.90
26212;DHT22;13951;49.516;6.094;2023-03-20T19:05:31;9.60;99.90
26212;DHT22;13951;49.516;6.094;2023-03-20T19:08:04;9.60;99.90
26212;DHT22;13951;49.516;6.094;2023-03-20T19:10:39;9.60;99.90
26212;DHT22;13951;49.516;6.094;2023-03-20T19:13:17;9.60;99.90
26212;DHT22;13951;49.516;6.094;2023-03-20T19:15:50;9.60;99.90
26212;DHT22;13951;49.516;6.094;2023-03-20T19:18:24;9.60;99.90
26212;DHT22;13951;49.516;6.094;2023-03-20T19:20:58;9.50;99.90
26212;DHT22;13951;49.516;6.094;2023-03-20T19:23:30;9.50;99.90
26212;DHT22;13951;49.516;6.094;2023-03-20T19:26:08;9.50;99.90
26212;DHT22;13951;49.516;6.094;2023-03-20T19:28:45;9.50;99.90